Terminal Aerodrome Forecast
Issued by NWS Memphis, TN

Home | Current Version | Previous Version | Text Only | Print | Product List | Glossary On
Versions: 1 2 3 4 5 6 7 8 9 10 11 12
000
FTUS44 KMEG 042337
TAFJBR
TAF
KJBR 042337Z 0500/0524 VRB03KT P6SM SCT250
     FM050900 VRB03KT P6SM VCTS BKN060CB OVC120
     FM051300 18006KT P6SM SCT060 BKN120
     FM052000 22008KT P6SM VCTS BKN060CB OVC120=

USA.gov is the U.S. government's official web portal to all federal, state and local government web resources and services.